Tokyo Maru — JG5666 — position and weather

sailwx.info

Track history (hours):
 
Tides and Currents Weather Stations Pressure Air Temp Water Temp Dewpoint Dewpoint Depression Visibility Wind Speed Wind Dir Waves Ship Positions

Tokyo Maru

Last reported at 2017-Nov-23 04:59 UTC. Time now 2017-Nov-23 05:29 UTC.
Position N 35°39' E 139°46'.

Length 40 m; draft 4 m.

Type: Tug. MMSI: 431100997.

Date/timePositionNaut miles runAvg speedWind from/ knotsBaromVisibWave heightAir tempDewpointWater temp
2017-Nov-23 04:59N 35°39' E 139°46'0 0.0
2017-Nov-23 04:31N 35°39' E 139°46'0 0.0
2017-Nov-23 03:57N 35°39' E 139°46'0 0.0
2017-Nov-23 03:30N 35°39' E 139°46'0 0.0
2017-Nov-23 03:00N 35°39' E 139°46'0 0.0
2017-Nov-23 02:30N 35°39' E 139°46'0 0.0
2017-Nov-23 02:01N 35°39' E 139°46'0 0.0
2017-Nov-23 01:31N 35°39' E 139°46'0 0.0
2017-Nov-23 01:00N 35°39' E 139°46'0 0.0
2017-Nov-23 00:28N 35°39' E 139°46'0 0.0
2017-Nov-23 00:01N 35°39' E 139°46'0 0.0
2017-Nov-22 23:30N 35°39' E 139°46'0 0.0
2017-Nov-22 23:01N 35°39' E 139°46'0 0.0
2017-Nov-22 22:30N 35°39' E 139°46'0 0.0
2017-Nov-22 22:00N 35°39' E 139°46'0 0.0
2017-Nov-22 21:30N 35°39' E 139°46'0 0.0
2017-Nov-22 21:01N 35°39' E 139°46'0 0.0
2017-Nov-22 20:30N 35°39' E 139°46'0 0.0
2017-Nov-22 20:01N 35°39' E 139°46'0 0.0
2017-Nov-22 19:30N 35°39' E 139°46'  
2017-Nov-20 00:30N 35°39' E 139°46'0 0.0
2017-Nov-20 00:00N 35°39' E 139°46'2 5.0
2017-Nov-19 23:30N 35°36' E 139°47'1 2.2
2017-Nov-19 23:00N 35°35' E 139°47'1 1.3
2017-Nov-19 22:31N 35°35' E 139°48'1 2.0
2017-Nov-19 22:00N 35°36' E 139°48'0 0.0
2017-Nov-19 21:30N 35°36' E 139°48'0 0.0
2017-Nov-19 21:01N 35°36' E 139°48'1 1.3
2017-Nov-19 20:30N 35°36' E 139°47'1 1.3
2017-Nov-19 20:00N 35°36' E 139°46'3 5.3
2017-Nov-19 19:30N 35°34' E 139°48'3 6.2
2017-Nov-19 19:00N 35°37' E 139°46'1 2.8
2017-Nov-19 18:31N 35°38' E 139°46'0 0.0
2017-Nov-19 18:01N 35°38' E 139°46'0 0.0
2017-Nov-19 17:30N 35°38' E 139°46'0 0.0
2017-Nov-19 17:01N 35°38' E 139°46'0 0.0
2017-Nov-19 16:31N 35°38' E 139°46'0 0.0
2017-Nov-19 16:00N 35°38' E 139°46'0 0.0
2017-Nov-19 15:30N 35°38' E 139°46'0 0.0
2017-Nov-19 15:01N 35°38' E 139°46'0 0.0
2017-Nov-19 14:31N 35°38' E 139°46'0 0.0
2017-Nov-19 14:01N 35°38' E 139°46'0 0.0
2017-Nov-19 13:30N 35°38' E 139°46'0 0.0
2017-Nov-19 13:01N 35°38' E 139°46'0 0.0
2017-Nov-19 12:31N 35°38' E 139°46'0 0.0
2017-Nov-19 12:01N 35°38' E 139°46'0 0.0
2017-Nov-19 11:31N 35°38' E 139°46'0 0.0
2017-Nov-19 11:01N 35°38' E 139°46'0 0.0
2017-Nov-19 10:30N 35°38' E 139°46'0 0.0
2017-Nov-19 09:59N 35°38' E 139°46'0 0.0
2017-Nov-19 09:28N 35°38' E 139°46'0 0.0
2017-Nov-19 08:59N 35°38' E 139°46'0 0.0
2017-Nov-19 08:29N 35°38' E 139°46'0 0.0
2017-Nov-19 07:56N 35°38' E 139°46'0 0.0
2017-Nov-19 07:30N 35°38' E 139°46'0 0.0
2017-Nov-19 07:01N 35°38' E 139°46'0 0.0
2017-Nov-19 06:30N 35°38' E 139°46'0 0.0
2017-Nov-19 05:58N 35°38' E 139°46'0 0.0
2017-Nov-19 05:29N 35°38' E 139°46'0 0.0
2017-Nov-19 05:01N 35°38' E 139°46'0 0.0
2017-Nov-19 04:31N 35°38' E 139°46'0 0.0
2017-Nov-19 04:01N 35°38' E 139°46'0 0.0
2017-Nov-19 03:30N 35°38' E 139°46'0 0.0
2017-Nov-19 03:01N 35°38' E 139°46'1 1.7
2017-Nov-19 02:30N 35°37' E 139°46'2 3.1
2017-Nov-19 02:00N 35°36' E 139°46'2 4.9
2017-Nov-19 01:31N 35°38' E 139°46'0 0.0
2017-Nov-19 01:01N 35°38' E 139°46'0 0.0
2017-Nov-19 00:31N 35°38' E 139°46'0 0.5
2017-Nov-19 00:00N 35°38' E 139°46'2 3.7
2017-Nov-18 23:30N 35°37' E 139°47'2 3.2
2017-Nov-18 23:00N 35°35' E 139°47'2 3.5
2017-Nov-18 22:30N 35°37' E 139°46'2 3.5
2017-Nov-18 21:58N 35°35' E 139°47'1 1.4
2017-Nov-18 21:30N 35°36' E 139°47'3 1.7
2017-Nov-18 19:35N 35°39' E 139°46'0 0.0
2017-Nov-18 19:29N 35°39' E 139°46'0 0.0
2017-Nov-18 18:59N 35°39' E 139°46'0 0.0
2017-Nov-18 18:25N 35°39' E 139°46'0 0.0
2017-Nov-18 18:00N 35°39' E 139°46'0 0.0
2017-Nov-18 17:06N 35°39' E 139°46'0 0.0
2017-Nov-18 16:59N 35°39' E 139°46'0 0.0
2017-Nov-18 16:30N 35°39' E 139°46'0 0.0
2017-Nov-18 15:59N 35°39' E 139°46'0 0.0
2017-Nov-18 15:30N 35°39' E 139°46'0 0.0
2017-Nov-18 15:00N 35°39' E 139°46'0 0.0
2017-Nov-18 14:30N 35°39' E 139°46'0 0.0
2017-Nov-18 13:51N 35°39' E 139°46'0 0.0
2017-Nov-18 13:25N 35°39' E 139°46'0 0.0
2017-Nov-18 12:59N 35°39' E 139°46'0 0.0
2017-Nov-18 10:56N 35°39' E 139°46'0 0.0
2017-Nov-18 10:27N 35°39' E 139°46'1 1.3
2017-Nov-18 10:00N 35°38' E 139°46'3 3.4
2017-Nov-18 09:13N 35°36' E 139°47'1 5.3
2017-Nov-18 09:00N 35°35' E 139°48'0 0.6
2017-Nov-18 08:28N 35°35' E 139°47'4 0.7
2017-Nov-18 02:48N 35°38' E 139°46'2 5.1
2017-Nov-18 02:24N 35°37' E 139°47'0 0.8
2017-Nov-18 01:58N 35°37' E 139°47'2 3.7
2017-Nov-18 01:25N 35°35' E 139°47'2 4.8
2017-Nov-18 01:00N 35°34' E 139°49'4 8.4
2017-Nov-18 00:30N 35°37' E 139°46'1 0.1
2017-Nov-17 07:05N 35°38' E 139°46'111.7
2017-Nov-17 07:00N 35°37' E 139°46'2 2.6
2017-Nov-17 06:14N 35°39' E 139°47'0 0.0
2017-Nov-17 05:50N 35°39' E 139°47'1 0.1
2017-Nov-16 22:06N 35°38' E 139°46'111.2
2017-Nov-16 22:00N 35°37' E 139°46'1 1.7
2017-Nov-16 21:30N 35°36' E 139°46'2 2.7
2017-Nov-16 20:56N 35°35' E 139°48'2 4.0
2017-Nov-16 20:29N 35°37' E 139°47'2 0.1
2017-Nov-15 17:48N 35°38' E 139°45'1 4.1
2017-Nov-15 17:30N 35°37' E 139°46'1 1.4
2017-Nov-15 16:55N 35°36' E 139°47'1 3.0
2017-Nov-15 16:30N 35°37' E 139°46'1 0.5
2017-Nov-15 14:41N 35°38' E 139°46'212.1
2017-Nov-15 14:30N 35°36' E 139°47'1 1.8
2017-Nov-15 13:57N 35°35' E 139°47'2 4.0
2017-Nov-15 13:30N 35°34' E 139°49'2 1.6
2017-Nov-15 12:09N 35°35' E 139°47'211.2
2017-Nov-15 12:00N 35°37' E 139°46'2 1.9
2017-Nov-15 11:10N 35°36' E 139°47'1 3.1
2017-Nov-15 10:58N 35°35' E 139°47'1 1.9
2017-Nov-15 10:28N 35°34' E 139°48'4 7.2
2017-Nov-15 09:57N 35°38' E 139°46'2 2.2
2017-Nov-15 09:14N 35°36' E 139°47'0 0.8
2017-Nov-15 09:00N 35°36' E 139°47'2 4.9
2017-Nov-15 08:30N 35°34' E 139°49'3 6.9
2017-Nov-15 08:00N 35°37' E 139°46'1 0.1
2017-Nov-14 21:43N 35°38' E 139°46'410.6
2017-Nov-14 21:23N 35°35' E 139°47'2 3.9
2017-Nov-14 21:00N 35°36' E 139°47'2 3.4
2017-Nov-14 20:25N 35°38' E 139°46'  
Track history (hours):
 
Tides and Currents Weather Stations Pressure Air Temp Water Temp Dewpoint Dewpoint Depression Visibility Wind Speed Wind Dir Waves Ship Positions

Tokyo Maru

Last reported at 2017-Nov-23 04:59 UTC. Time now 2017-Nov-23 05:29 UTC.
Position N 35°39' E 139°46'.

Length 40 m; draft 4 m.

Type: Tug. MMSI: 431100997.

Date/timePositionNaut miles runAvg speedWind from/ knotsBaromVisibWave heightAir tempDewpointWater temp
2017-Nov-23 04:59N 35°39' E 139°46'0 0.0
2017-Nov-23 04:31N 35°39' E 139°46'0 0.0
2017-Nov-23 03:57N 35°39' E 139°46'0 0.0
2017-Nov-23 03:30N 35°39' E 139°46'0 0.0
2017-Nov-23 03:00N 35°39' E 139°46'0 0.0
2017-Nov-23 02:30N 35°39' E 139°46'0 0.0
2017-Nov-23 02:01N 35°39' E 139°46'0 0.0
2017-Nov-23 01:31N 35°39' E 139°46'0 0.0
2017-Nov-23 01:00N 35°39' E 139°46'0 0.0
2017-Nov-23 00:28N 35°39' E 139°46'0 0.0
2017-Nov-23 00:01N 35°39' E 139°46'0 0.0
2017-Nov-22 23:30N 35°39' E 139°46'0 0.0
2017-Nov-22 23:01N 35°39' E 139°46'0 0.0
2017-Nov-22 22:30N 35°39' E 139°46'0 0.0
2017-Nov-22 22:00N 35°39' E 139°46'0 0.0
2017-Nov-22 21:30N 35°39' E 139°46'0 0.0
2017-Nov-22 21:01N 35°39' E 139°46'0 0.0
2017-Nov-22 20:30N 35°39' E 139°46'0 0.0
2017-Nov-22 20:01N 35°39' E 139°46'0 0.0
2017-Nov-22 19:30N 35°39' E 139°46'  
2017-Nov-20 00:30N 35°39' E 139°46'0 0.0
2017-Nov-20 00:00N 35°39' E 139°46'2 5.0
2017-Nov-19 23:30N 35°36' E 139°47'1 2.2
2017-Nov-19 23:00N 35°35' E 139°47'1 1.3
2017-Nov-19 22:31N 35°35' E 139°48'1 2.0
2017-Nov-19 22:00N 35°36' E 139°48'0 0.0
2017-Nov-19 21:30N 35°36' E 139°48'0 0.0
2017-Nov-19 21:01N 35°36' E 139°48'1 1.3
2017-Nov-19 20:30N 35°36' E 139°47'1 1.3
2017-Nov-19 20:00N 35°36' E 139°46'3 5.3
2017-Nov-19 19:30N 35°34' E 139°48'3 6.2
2017-Nov-19 19:00N 35°37' E 139°46'1 2.8
2017-Nov-19 18:31N 35°38' E 139°46'0 0.0
2017-Nov-19 18:01N 35°38' E 139°46'0 0.0
2017-Nov-19 17:30N 35°38' E 139°46'0 0.0
2017-Nov-19 17:01N 35°38' E 139°46'0 0.0
2017-Nov-19 16:31N 35°38' E 139°46'0 0.0
2017-Nov-19 16:00N 35°38' E 139°46'0 0.0
2017-Nov-19 15:30N 35°38' E 139°46'0 0.0
2017-Nov-19 15:01N 35°38' E 139°46'0 0.0
2017-Nov-19 14:31N 35°38' E 139°46'0 0.0
2017-Nov-19 14:01N 35°38' E 139°46'0 0.0
2017-Nov-19 13:30N 35°38' E 139°46'0 0.0
2017-Nov-19 13:01N 35°38' E 139°46'0 0.0
2017-Nov-19 12:31N 35°38' E 139°46'0 0.0
2017-Nov-19 12:01N 35°38' E 139°46'0 0.0
2017-Nov-19 11:31N 35°38' E 139°46'0 0.0
2017-Nov-19 11:01N 35°38' E 139°46'0 0.0
2017-Nov-19 10:30N 35°38' E 139°46'0 0.0
2017-Nov-19 09:59N 35°38' E 139°46'0 0.0
2017-Nov-19 09:28N 35°38' E 139°46'0 0.0
2017-Nov-19 08:59N 35°38' E 139°46'0 0.0
2017-Nov-19 08:29N 35°38' E 139°46'0 0.0
2017-Nov-19 07:56N 35°38' E 139°46'0 0.0
2017-Nov-19 07:30N 35°38' E 139°46'0 0.0
2017-Nov-19 07:01N 35°38' E 139°46'0 0.0
2017-Nov-19 06:30N 35°38' E 139°46'0 0.0
2017-Nov-19 05:58N 35°38' E 139°46'0 0.0
2017-Nov-19 05:29N 35°38' E 139°46'0 0.0
2017-Nov-19 05:01N 35°38' E 139°46'0 0.0
2017-Nov-19 04:31N 35°38' E 139°46'0 0.0
2017-Nov-19 04:01N 35°38' E 139°46'0 0.0
2017-Nov-19 03:30N 35°38' E 139°46'0 0.0
2017-Nov-19 03:01N 35°38' E 139°46'1 1.7
2017-Nov-19 02:30N 35°37' E 139°46'2 3.1
2017-Nov-19 02:00N 35°36' E 139°46'2 4.9
2017-Nov-19 01:31N 35°38' E 139°46'0 0.0
2017-Nov-19 01:01N 35°38' E 139°46'0 0.0
2017-Nov-19 00:31N 35°38' E 139°46'0 0.5
2017-Nov-19 00:00N 35°38' E 139°46'2 3.7
2017-Nov-18 23:30N 35°37' E 139°47'2 3.2
2017-Nov-18 23:00N 35°35' E 139°47'2 3.5
2017-Nov-18 22:30N 35°37' E 139°46'2 3.5
2017-Nov-18 21:58N 35°35' E 139°47'1 1.4
2017-Nov-18 21:30N 35°36' E 139°47'3 1.7
2017-Nov-18 19:35N 35°39' E 139°46'0 0.0
2017-Nov-18 19:29N 35°39' E 139°46'0 0.0
2017-Nov-18 18:59N 35°39' E 139°46'0 0.0
2017-Nov-18 18:25N 35°39' E 139°46'0 0.0
2017-Nov-18 18:00N 35°39' E 139°46'0 0.0
2017-Nov-18 17:06N 35°39' E 139°46'0 0.0
2017-Nov-18 16:59N 35°39' E 139°46'0 0.0
2017-Nov-18 16:30N 35°39' E 139°46'0 0.0
2017-Nov-18 15:59N 35°39' E 139°46'0 0.0
2017-Nov-18 15:30N 35°39' E 139°46'0 0.0
2017-Nov-18 15:00N 35°39' E 139°46'0 0.0
2017-Nov-18 14:30N 35°39' E 139°46'0 0.0
2017-Nov-18 13:51N 35°39' E 139°46'0 0.0
2017-Nov-18 13:25N 35°39' E 139°46'0 0.0
2017-Nov-18 12:59N 35°39' E 139°46'0 0.0
2017-Nov-18 10:56N 35°39' E 139°46'0 0.0
2017-Nov-18 10:27N 35°39' E 139°46'1 1.3
2017-Nov-18 10:00N 35°38' E 139°46'3 3.4
2017-Nov-18 09:13N 35°36' E 139°47'1 5.3
2017-Nov-18 09:00N 35°35' E 139°48'0 0.6
2017-Nov-18 08:28N 35°35' E 139°47'4 0.7
2017-Nov-18 02:48N 35°38' E 139°46'2 5.1
2017-Nov-18 02:24N 35°37' E 139°47'0 0.8
2017-Nov-18 01:58N 35°37' E 139°47'2 3.7
2017-Nov-18 01:25N 35°35' E 139°47'2 4.8
2017-Nov-18 01:00N 35°34' E 139°49'4 8.4
2017-Nov-18 00:30N 35°37' E 139°46'1 0.1
2017-Nov-17 07:05N 35°38' E 139°46'111.7
2017-Nov-17 07:00N 35°37' E 139°46'2 2.6
2017-Nov-17 06:14N 35°39' E 139°47'0 0.0
2017-Nov-17 05:50N 35°39' E 139°47'1 0.1
2017-Nov-16 22:06N 35°38' E 139°46'111.2
2017-Nov-16 22:00N 35°37' E 139°46'1 1.7
2017-Nov-16 21:30N 35°36' E 139°46'2 2.7
2017-Nov-16 20:56N 35°35' E 139°48'2 4.0
2017-Nov-16 20:29N 35°37' E 139°47'2 0.1
2017-Nov-15 17:48N 35°38' E 139°45'1 4.1
2017-Nov-15 17:30N 35°37' E 139°46'1 1.4
2017-Nov-15 16:55N 35°36' E 139°47'1 3.0
2017-Nov-15 16:30N 35°37' E 139°46'1 0.5
2017-Nov-15 14:41N 35°38' E 139°46'212.1
2017-Nov-15 14:30N 35°36' E 139°47'1 1.8
2017-Nov-15 13:57N 35°35' E 139°47'2 4.0
2017-Nov-15 13:30N 35°34' E 139°49'2 1.6
2017-Nov-15 12:09N 35°35' E 139°47'211.2
2017-Nov-15 12:00N 35°37' E 139°46'2 1.9
2017-Nov-15 11:10N 35°36' E 139°47'1 3.1
2017-Nov-15 10:58N 35°35' E 139°47'1 1.9
2017-Nov-15 10:28N 35°34' E 139°48'4 7.2
2017-Nov-15 09:57N 35°38' E 139°46'2 2.2
2017-Nov-15 09:14N 35°36' E 139°47'0 0.8
2017-Nov-15 09:00N 35°36' E 139°47'2 4.9
2017-Nov-15 08:30N 35°34' E 139°49'3 6.9
2017-Nov-15 08:00N 35°37' E 139°46'1 0.1
2017-Nov-14 21:43N 35°38' E 139°46'410.6
2017-Nov-14 21:23N 35°35' E 139°47'2 3.9
2017-Nov-14 21:00N 35°36' E 139°47'2 3.4
2017-Nov-14 20:25N 35°38' E 139°46'  

Dump ship's entire track history